sensor_id;sensor_type;location;lat;lon;timestamp;pressure;altitude;pressure_sealevel;temperature;humidity
58662;BME280;44432;49.786;22.760;2024-01-27T00:00:28;99229.64;;;0.90;85.84
58662;BME280;44432;49.786;22.760;2024-01-27T00:03:18;99226.39;;;0.93;86.05
58662;BME280;44432;49.786;22.760;2024-01-27T00:05:49;99221.76;;;0.91;85.92
58662;BME280;44432;49.786;22.760;2024-01-27T00:08:20;99222.80;;;0.91;86.17
58662;BME280;44432;49.786;22.760;2024-01-27T00:10:51;99218.80;;;0.91;86.15
58662;BME280;44432;49.786;22.760;2024-01-27T00:13:22;99217.50;;;0.92;86.13
58662;BME280;44432;49.786;22.760;2024-01-27T00:15:52;99216.68;;;0.92;86.26
58662;BME280;44432;49.786;22.760;2024-01-27T00:18:24;99216.85;;;0.92;86.28
58662;BME280;44432;49.786;22.760;2024-01-27T00:20:55;99221.67;;;0.90;86.19
58662;BME280;44432;49.786;22.760;2024-01-27T00:23:26;99224.23;;;0.89;86.28
58662;BME280;44432;49.786;22.760;2024-01-27T00:25:56;99228.30;;;0.88;86.38
58662;BME280;44432;49.786;22.760;2024-01-27T00:28:27;99224.16;;;0.88;86.71
58662;BME280;44432;49.786;22.760;2024-01-27T00:30:58;99224.79;;;0.89;87.06
58662;BME280;44432;49.786;22.760;2024-01-27T00:33:29;99224.99;;;0.90;87.28
58662;BME280;44432;49.786;22.760;2024-01-27T00:35:59;99222.84;;;0.93;87.55
58662;BME280;44432;49.786;22.760;2024-01-27T00:38:30;99224.66;;;0.93;87.67
58662;BME280;44432;49.786;22.760;2024-01-27T00:41:01;99223.73;;;0.96;87.70
58662;BME280;44432;49.786;22.760;2024-01-27T00:43:32;99223.36;;;0.98;87.74
58662;BME280;44432;49.786;22.760;2024-01-27T00:46:03;99212.67;;;0.99;87.96
58662;BME280;44432;49.786;22.760;2024-01-27T00:48:33;99212.91;;;1.01;88.20
58662;BME280;44432;49.786;22.760;2024-01-27T00:51:05;99214.67;;;1.02;88.28
58662;BME280;44432;49.786;22.760;2024-01-27T00:53:35;99214.73;;;1.03;88.55
58662;BME280;44432;49.786;22.760;2024-01-27T00:56:07;99213.14;;;1.05;88.97
58662;BME280;44432;49.786;22.760;2024-01-27T00:58:38;99212.77;;;1.07;89.10
58662;BME280;44432;49.786;22.760;2024-01-27T01:01:08;99211.86;;;1.09;89.11
58662;BME280;44432;49.786;22.760;2024-01-27T01:03:39;99215.83;;;1.11;89.43
58662;BME280;44432;49.786;22.760;2024-01-27T01:06:10;99218.94;;;1.13;89.55
58662;BME280;44432;49.786;22.760;2024-01-27T01:08:41;99221.15;;;1.15;89.63
58662;BME280;44432;49.786;22.760;2024-01-27T01:11:12;99223.70;;;1.17;89.74
58662;BME280;44432;49.786;22.760;2024-01-27T01:13:44;99231.41;;;1.17;89.89
58662;BME280;44432;49.786;22.760;2024-01-27T01:16:15;99238.48;;;1.20;89.93
58662;BME280;44432;49.786;22.760;2024-01-27T01:18:45;99237.80;;;1.21;89.80
58662;BME280;44432;49.786;22.760;2024-01-27T01:21:16;99242.45;;;1.21;90.09
58662;BME280;44432;49.786;22.760;2024-01-27T01:23:47;99246.48;;;1.21;90.09
58662;BME280;44432;49.786;22.760;2024-01-27T01:26:18;99249.88;;;1.18;90.41
58662;BME280;44432;49.786;22.760;2024-01-27T01:28:49;99248.50;;;1.17;90.30
58662;BME280;44432;49.786;22.760;2024-01-27T01:31:19;99250.24;;;1.15;90.55
58662;BME280;44432;49.786;22.760;2024-01-27T01:33:50;99251.45;;;1.15;90.53
58662;BME280;44432;49.786;22.760;2024-01-27T01:36:21;99253.34;;;1.15;90.69
58662;BME280;44432;49.786;22.760;2024-01-27T01:38:52;99255.65;;;1.16;90.84
58662;BME280;44432;49.786;22.760;2024-01-27T01:41:23;99251.73;;;1.17;91.10
58662;BME280;44432;49.786;22.760;2024-01-27T01:43:54;99255.89;;;1.19;90.87
58662;BME280;44432;49.786;22.760;2024-01-27T01:46:25;99243.45;;;1.19;90.83
58662;BME280;44432;49.786;22.760;2024-01-27T01:48:56;99246.28;;;1.21;90.93
58662;BME280;44432;49.786;22.760;2024-01-27T01:51:27;99244.54;;;1.23;90.98
58662;BME280;44432;49.786;22.760;2024-01-27T01:53:59;99242.12;;;1.25;90.98
58662;BME280;44432;49.786;22.760;2024-01-27T01:56:30;99241.90;;;1.27;91.05
58662;BME280;44432;49.786;22.760;2024-01-27T01:59:01;99239.28;;;1.29;91.29
58662;BME280;44432;49.786;22.760;2024-01-27T02:01:32;99238.19;;;1.31;91.52
58662;BME280;44432;49.786;22.760;2024-01-27T02:04:05;99241.91;;;1.34;91.36
58662;BME280;44432;49.786;22.760;2024-01-27T02:06:36;99238.31;;;1.35;91.31
58662;BME280;44432;49.786;22.760;2024-01-27T02:09:07;99239.83;;;1.39;91.72
58662;BME280;44432;49.786;22.760;2024-01-27T02:11:39;99242.19;;;1.43;91.62
58662;BME280;44432;49.786;22.760;2024-01-27T02:14:10;99244.09;;;1.47;91.77
58662;BME280;44432;49.786;22.760;2024-01-27T02:16:42;99245.57;;;1.51;91.82
58662;BME280;44432;49.786;22.760;2024-01-27T02:19:13;99244.79;;;1.55;91.90
58662;BME280;44432;49.786;22.760;2024-01-27T02:21:44;99244.48;;;1.60;92.20
58662;BME280;44432;49.786;22.760;2024-01-27T02:24:15;99248.89;;;1.64;92.12
58662;BME280;44432;49.786;22.760;2024-01-27T02:26:45;99244.51;;;1.68;92.61
58662;BME280;44432;49.786;22.760;2024-01-27T02:29:16;99244.53;;;1.73;92.70
58662;BME280;44432;49.786;22.760;2024-01-27T02:31:47;99248.63;;;1.79;92.97
58662;BME280;44432;49.786;22.760;2024-01-27T02:34:18;99247.80;;;1.85;92.70
58662;BME280;44432;49.786;22.760;2024-01-27T02:36:48;99252.21;;;1.91;92.94
58662;BME280;44432;49.786;22.760;2024-01-27T02:39:19;99264.48;;;1.98;93.34
58662;BME280;44432;49.786;22.760;2024-01-27T02:41:50;99270.23;;;2.05;93.27
58662;BME280;44432;49.786;22.760;2024-01-27T02:44:21;99278.33;;;2.12;93.48
58662;BME280;44432;49.786;22.760;2024-01-27T02:46:52;99287.42;;;2.18;93.53
58662;BME280;44432;49.786;22.760;2024-01-27T02:49:23;99292.53;;;2.25;93.48
58662;BME280;44432;49.786;22.760;2024-01-27T02:51:54;99295.61;;;2.33;93.85
58662;BME280;44432;49.786;22.760;2024-01-27T02:54:25;99311.56;;;2.43;94.47
58662;BME280;44432;49.786;22.760;2024-01-27T02:56:56;99318.59;;;2.55;94.87
58662;BME280;44432;49.786;22.760;2024-01-27T02:59:27;99340.54;;;2.68;95.38
58662;BME280;44432;49.786;22.760;2024-01-27T03:01:58;99345.77;;;2.86;96.15
58662;BME280;44432;49.786;22.760;2024-01-27T03:04:28;99359.39;;;2.95;95.54
58662;BME280;44432;49.786;22.760;2024-01-27T03:06:59;99347.27;;;3.05;95.32
58662;BME280;44432;49.786;22.760;2024-01-27T03:09:30;99346.83;;;3.13;94.85
58662;BME280;44432;49.786;22.760;2024-01-27T03:12:01;99345.63;;;3.21;94.50
58662;BME280;44432;49.786;22.760;2024-01-27T03:14:32;99345.19;;;3.24;93.93
58662;BME280;44432;49.786;22.760;2024-01-27T03:17:03;99352.91;;;3.26;93.52
58662;BME280;44432;49.786;22.760;2024-01-27T03:19:34;99348.17;;;3.30;93.09
58662;BME280;44432;49.786;22.760;2024-01-27T03:22:05;99355.39;;;3.31;92.70
58662;BME280;44432;49.786;22.760;2024-01-27T03:24:35;99358.48;;;3.31;92.41
58662;BME280;44432;49.786;22.760;2024-01-27T03:27:06;99364.16;;;3.33;92.35
58662;BME280;44432;49.786;22.760;2024-01-27T03:29:37;99366.38;;;3.35;91.61
58662;BME280;44432;49.786;22.760;2024-01-27T03:32:08;99376.77;;;3.36;91.62
58662;BME280;44432;49.786;22.760;2024-01-27T03:34:44;99386.64;;;3.35;91.13
58662;BME280;44432;49.786;22.760;2024-01-27T03:37:15;99394.76;;;3.40;89.65
58662;BME280;44432;49.786;22.760;2024-01-27T03:39:46;99386.73;;;3.44;89.44
58662;BME280;44432;49.786;22.760;2024-01-27T03:42:16;99385.46;;;3.44;88.55
58662;BME280;44432;49.786;22.760;2024-01-27T03:44:47;99389.86;;;3.43;88.32
58662;BME280;44432;49.786;22.760;2024-01-27T03:47:18;99404.45;;;3.42;87.90
58662;BME280;44432;49.786;22.760;2024-01-27T03:49:49;99405.52;;;3.40;87.85
58662;BME280;44432;49.786;22.760;2024-01-27T03:52:20;99418.41;;;3.40;86.54
58662;BME280;44432;49.786;22.760;2024-01-27T03:54:50;99419.80;;;3.40;86.46
58662;BME280;44432;49.786;22.760;2024-01-27T03:57:21;99429.36;;;3.38;86.40
58662;BME280;44432;49.786;22.760;2024-01-27T03:59:52;99427.15;;;3.35;86.33
58662;BME280;44432;49.786;22.760;2024-01-27T04:02:22;99436.48;;;3.32;86.23
58662;BME280;44432;49.786;22.760;2024-01-27T04:04:53;99441.79;;;3.29;86.07
58662;BME280;44432;49.786;22.760;2024-01-27T04:07:24;99438.92;;;3.27;86.18
58662;BME280;44432;49.786;22.760;2024-01-27T04:09:55;99441.84;;;3.24;85.84
58662;BME280;44432;49.786;22.760;2024-01-27T04:12:25;99446.77;;;3.22;84.62
58662;BME280;44432;49.786;22.760;2024-01-27T04:14:56;99445.34;;;3.21;84.95
58662;BME280;44432;49.786;22.760;2024-01-27T04:17:27;99454.52;;;3.19;85.12
58662;BME280;44432;49.786;22.760;2024-01-27T04:19:58;99466.72;;;3.17;85.04
58662;BME280;44432;49.786;22.760;2024-01-27T04:22:28;99471.88;;;3.13;85.20
58662;BME280;44432;49.786;22.760;2024-01-27T04:24:59;99479.46;;;3.04;85.52
58662;BME280;44432;49.786;22.760;2024-01-27T04:27:30;99482.21;;;2.98;85.70
58662;BME280;44432;49.786;22.760;2024-01-27T04:30:01;99485.82;;;2.91;85.81
58662;BME280;44432;49.786;22.760;2024-01-27T04:32:32;99490.98;;;2.85;85.97
58662;BME280;44432;49.786;22.760;2024-01-27T04:35:04;99498.46;;;2.80;86.00
58662;BME280;44432;49.786;22.760;2024-01-27T04:37:34;99499.75;;;2.78;86.45
58662;BME280;44432;49.786;22.760;2024-01-27T04:40:07;99504.20;;;2.75;86.27
58662;BME280;44432;49.786;22.760;2024-01-27T04:42:39;99509.19;;;2.74;86.42
58662;BME280;44432;49.786;22.760;2024-01-27T04:45:14;99511.10;;;2.72;86.39
58662;BME280;44432;49.786;22.760;2024-01-27T04:47:45;99518.48;;;2.73;86.48
58662;BME280;44432;49.786;22.760;2024-01-27T04:50:17;99519.19;;;2.75;86.49
58662;BME280;44432;49.786;22.760;2024-01-27T04:52:47;99524.17;;;2.75;85.96
58662;BME280;44432;49.786;22.760;2024-01-27T04:55:18;99521.05;;;2.75;85.65
58662;BME280;44432;49.786;22.760;2024-01-27T04:57:50;99521.80;;;2.76;85.65
58662;BME280;44432;49.786;22.760;2024-01-27T05:00:21;99519.39;;;2.76;85.55
58662;BME280;44432;49.786;22.760;2024-01-27T05:02:52;99518.98;;;2.77;85.43
58662;BME280;44432;49.786;22.760;2024-01-27T05:05:23;99521.31;;;2.76;84.86
58662;BME280;44432;49.786;22.760;2024-01-27T05:07:54;99526.05;;;2.77;84.67
58662;BME280;44432;49.786;22.760;2024-01-27T05:10:26;99523.58;;;2.78;84.99
58662;BME280;44432;49.786;22.760;2024-01-27T05:12:59;99529.41;;;2.78;84.28
58662;BME280;44432;49.786;22.760;2024-01-27T05:15:30;99531.66;;;2.79;83.89
58662;BME280;44432;49.786;22.760;2024-01-27T05:18:01;99536.23;;;2.80;83.59
58662;BME280;44432;49.786;22.760;2024-01-27T05:20:32;99527.95;;;2.80;83.55
58662;BME280;44432;49.786;22.760;2024-01-27T05:23:03;99534.45;;;2.82;83.19
58662;BME280;44432;49.786;22.760;2024-01-27T05:25:34;99537.25;;;2.82;83.35
58662;BME280;44432;49.786;22.760;2024-01-27T05:28:06;99546.69;;;2.81;82.91
58662;BME280;44432;49.786;22.760;2024-01-27T05:30:37;99541.45;;;2.81;83.09
58662;BME280;44432;49.786;22.760;2024-01-27T05:33:07;99549.17;;;2.81;82.68
58662;BME280;44432;49.786;22.760;2024-01-27T05:35:38;99554.83;;;2.80;82.66
58662;BME280;44432;49.786;22.760;2024-01-27T05:38:09;99558.71;;;2.79;82.59
58662;BME280;44432;49.786;22.760;2024-01-27T05:40:40;99553.73;;;2.79;82.83
58662;BME280;44432;49.786;22.760;2024-01-27T05:43:11;99556.88;;;2.78;82.50
58662;BME280;44432;49.786;22.760;2024-01-27T05:45:42;99559.98;;;2.78;82.28
58662;BME280;44432;49.786;22.760;2024-01-27T05:48:14;99566.73;;;2.79;82.21
58662;BME280;44432;49.786;22.760;2024-01-27T05:50:56;99567.21;;;2.79;82.18
58662;BME280;44432;49.786;22.760;2024-01-27T05:53:27;99567.38;;;2.79;81.95
58662;BME280;44432;49.786;22.760;2024-01-27T05:55:58;99559.08;;;2.79;81.95
58662;BME280;44432;49.786;22.760;2024-01-27T05:58:29;99565.75;;;2.80;82.07
58662;BME280;44432;49.786;22.760;2024-01-27T06:00:59;99564.61;;;2.79;81.68
58662;BME280;44432;49.786;22.760;2024-01-27T06:03:30;99565.63;;;2.79;81.78
58662;BME280;44432;49.786;22.760;2024-01-27T06:06:02;99566.59;;;2.79;81.48
58662;BME280;44432;49.786;22.760;2024-01-27T06:08:33;99570.77;;;2.80;81.63
58662;BME280;44432;49.786;22.760;2024-01-27T06:11:04;99576.09;;;2.81;81.16
58662;BME280;44432;49.786;22.760;2024-01-27T06:13:35;99585.73;;;2.82;81.16
58662;BME280;44432;49.786;22.760;2024-01-27T06:16:09;99587.48;;;2.81;81.05
58662;BME280;44432;49.786;22.760;2024-01-27T06:18:40;99593.10;;;2.81;81.38
58662;BME280;44432;49.786;22.760;2024-01-27T06:21:12;99594.92;;;2.80;81.29
58662;BME280;44432;49.786;22.760;2024-01-27T06:23:43;99602.38;;;2.77;81.44
58662;BME280;44432;49.786;22.760;2024-01-27T06:26:15;99608.00;;;2.76;81.61
58662;BME280;44432;49.786;22.760;2024-01-27T06:28:46;99608.77;;;2.74;81.91
58662;BME280;44432;49.786;22.760;2024-01-27T06:31:17;99613.42;;;2.73;82.19
58662;BME280;44432;49.786;22.760;2024-01-27T06:33:47;99619.02;;;2.71;82.14
58662;BME280;44432;49.786;22.760;2024-01-27T06:36:18;99622.00;;;2.69;82.20
58662;BME280;44432;49.786;22.760;2024-01-27T06:38:52;99621.89;;;2.62;82.59
58662;BME280;44432;49.786;22.760;2024-01-27T06:41:24;99621.92;;;2.57;82.81
58662;BME280;44432;49.786;22.760;2024-01-27T06:43:54;99621.78;;;2.50;83.04
58662;BME280;44432;49.786;22.760;2024-01-27T06:46:25;99624.70;;;2.45;83.43
58662;BME280;44432;49.786;22.760;2024-01-27T06:48:56;99624.77;;;2.43;83.81
58662;BME280;44432;49.786;22.760;2024-01-27T06:51:27;99627.23;;;2.42;83.83
58662;BME280;44432;49.786;22.760;2024-01-27T06:53:58;99630.37;;;2.44;84.08
58662;BME280;44432;49.786;22.760;2024-01-27T06:56:28;99636.45;;;2.44;84.32
58662;BME280;44432;49.786;22.760;2024-01-27T06:58:59;99641.14;;;2.47;84.16
58662;BME280;44432;49.786;22.760;2024-01-27T07:01:30;99646.52;;;2.49;84.03
58662;BME280;44432;49.786;22.760;2024-01-27T07:04:00;99648.08;;;2.51;83.86
58662;BME280;44432;49.786;22.760;2024-01-27T07:06:31;99642.95;;;2.53;83.90
58662;BME280;44432;49.786;22.760;2024-01-27T07:09:02;99640.86;;;2.57;83.86
58662;BME280;44432;49.786;22.760;2024-01-27T07:11:33;99645.70;;;2.61;84.02
58662;BME280;44432;49.786;22.760;2024-01-27T07:14:04;99647.42;;;2.65;83.99
58662;BME280;44432;49.786;22.760;2024-01-27T07:16:36;99645.66;;;2.69;83.40
58662;BME280;44432;49.786;22.760;2024-01-27T07:19:07;99651.45;;;2.73;83.62
58662;BME280;44432;49.786;22.760;2024-01-27T07:21:38;99656.95;;;2.77;83.36
58662;BME280;44432;49.786;22.760;2024-01-27T07:24:09;99660.73;;;2.83;83.56
58662;BME280;44432;49.786;22.760;2024-01-27T07:26:40;99669.41;;;2.86;83.16
58662;BME280;44432;49.786;22.760;2024-01-27T07:29:11;99665.15;;;2.89;82.78
58662;BME280;44432;49.786;22.760;2024-01-27T07:31:42;99664.11;;;2.94;82.46
58662;BME280;44432;49.786;22.760;2024-01-27T07:34:13;99665.92;;;2.99;82.48
58662;BME280;44432;49.786;22.760;2024-01-27T07:36:44;99673.52;;;3.02;81.71
58662;BME280;44432;49.786;22.760;2024-01-27T07:39:15;99671.28;;;3.06;81.90
58662;BME280;44432;49.786;22.760;2024-01-27T07:41:45;99667.29;;;3.10;81.05
58662;BME280;44432;49.786;22.760;2024-01-27T07:44:19;99676.39;;;3.16;80.80
58662;BME280;44432;49.786;22.760;2024-01-27T07:46:50;99676.04;;;3.22;80.47
58662;BME280;44432;49.786;22.760;2024-01-27T07:49:21;99674.55;;;3.26;80.56
58662;BME280;44432;49.786;22.760;2024-01-27T07:51:52;99678.75;;;3.29;80.47
58662;BME280;44432;49.786;22.760;2024-01-27T07:54:23;99680.30;;;3.33;80.43
58662;BME280;44432;49.786;22.760;2024-01-27T07:56:54;99676.41;;;3.34;80.07
58662;BME280;44432;49.786;22.760;2024-01-27T07:59:25;99680.33;;;3.33;80.00
58662;BME280;44432;49.786;22.760;2024-01-27T08:01:56;99676.58;;;3.34;79.86
58662;BME280;44432;49.786;22.760;2024-01-27T08:04:27;99677.91;;;3.38;79.81
58662;BME280;44432;49.786;22.760;2024-01-27T08:06:58;99682.46;;;3.42;79.71
58662;BME280;44432;49.786;22.760;2024-01-27T08:09:30;99690.17;;;3.47;79.58
58662;BME280;44432;49.786;22.760;2024-01-27T08:12:01;99693.33;;;3.51;80.10
58662;BME280;44432;49.786;22.760;2024-01-27T08:14:31;99698.50;;;3.55;79.69
58662;BME280;44432;49.786;22.760;2024-01-27T08:17:03;99705.11;;;3.57;79.54
58662;BME280;44432;49.786;22.760;2024-01-27T08:19:34;99704.40;;;3.59;79.66
58662;BME280;44432;49.786;22.760;2024-01-27T08:22:05;99712.63;;;3.62;79.59
58662;BME280;44432;49.786;22.760;2024-01-27T08:24:37;99707.45;;;3.65;79.34
58662;BME280;44432;49.786;22.760;2024-01-27T08:27:08;99709.20;;;3.69;79.20
58662;BME280;44432;49.786;22.760;2024-01-27T08:29:38;99713.69;;;3.74;79.46
58662;BME280;44432;49.786;22.760;2024-01-27T08:32:09;99713.65;;;3.79;79.38
58662;BME280;44432;49.786;22.760;2024-01-27T08:34:42;99716.10;;;3.82;79.47
58662;BME280;44432;49.786;22.760;2024-01-27T08:37:17;99717.22;;;3.85;79.15
58662;BME280;44432;49.786;22.760;2024-01-27T08:39:49;99721.25;;;3.90;78.69
58662;BME280;44432;49.786;22.760;2024-01-27T08:42:20;99716.62;;;3.92;78.71
58662;BME280;44432;49.786;22.760;2024-01-27T08:44:51;99729.52;;;3.92;78.05
58662;BME280;44432;49.786;22.760;2024-01-27T08:47:22;99725.38;;;3.93;78.31
58662;BME280;44432;49.786;22.760;2024-01-27T08:49:53;99722.02;;;3.96;78.25
58662;BME280;44432;49.786;22.760;2024-01-27T08:52:24;99725.16;;;3.99;77.79
58662;BME280;44432;49.786;22.760;2024-01-27T08:54:54;99731.38;;;4.01;77.90
58662;BME280;44432;49.786;22.760;2024-01-27T08:57:25;99729.91;;;4.04;78.04
58662;BME280;44432;49.786;22.760;2024-01-27T08:59:56;99731.04;;;4.06;77.99
58662;BME280;44432;49.786;22.760;2024-01-27T09:02:27;99729.66;;;4.11;77.85
58662;BME280;44432;49.786;22.760;2024-01-27T09:04:58;99727.91;;;4.14;77.98
58662;BME280;44432;49.786;22.760;2024-01-27T09:07:29;99732.30;;;4.17;77.92
58662;BME280;44432;49.786;22.760;2024-01-27T09:10:00;99732.37;;;4.18;77.65
58662;BME280;44432;49.786;22.760;2024-01-27T09:12:31;99735.24;;;4.17;77.01
58662;BME280;44432;49.786;22.760;2024-01-27T09:15:02;99745.17;;;4.17;76.81
58662;BME280;44432;49.786;22.760;2024-01-27T09:17:33;99744.96;;;4.16;76.82
58662;BME280;44432;49.786;22.760;2024-01-27T09:20:05;99749.58;;;4.16;77.12
58662;BME280;44432;49.786;22.760;2024-01-27T09:22:36;99748.05;;;4.19;77.15
58662;BME280;44432;49.786;22.760;2024-01-27T09:25:08;99747.95;;;4.20;76.69
58662;BME280;44432;49.786;22.760;2024-01-27T09:27:39;99749.77;;;4.20;76.76
58662;BME280;44432;49.786;22.760;2024-01-27T09:30:11;99747.01;;;4.18;76.24
58662;BME280;44432;49.786;22.760;2024-01-27T09:32:42;99755.34;;;4.20;76.54
58662;BME280;44432;49.786;22.760;2024-01-27T09:35:13;99754.92;;;4.24;76.59
58662;BME280;44432;49.786;22.760;2024-01-27T09:37:44;99752.25;;;4.26;76.35
58662;BME280;44432;49.786;22.760;2024-01-27T09:40:15;99752.21;;;4.26;76.26
58662;BME280;44432;49.786;22.760;2024-01-27T09:42:51;99757.51;;;4.27;76.09
58662;BME280;44432;49.786;22.760;2024-01-27T09:45:23;99753.23;;;4.26;76.12
58662;BME280;44432;49.786;22.760;2024-01-27T09:47:55;99751.73;;;4.24;75.83
58662;BME280;44432;49.786;22.760;2024-01-27T09:50:27;99752.01;;;4.23;76.25
58662;BME280;44432;49.786;22.760;2024-01-27T09:52:58;99753.15;;;4.22;75.63
58662;BME280;44432;49.786;22.760;2024-01-27T09:55:30;99756.98;;;4.22;75.83
58662;BME280;44432;49.786;22.760;2024-01-27T09:58:02;99753.73;;;4.22;75.77
58662;BME280;44432;49.786;22.760;2024-01-27T10:00:33;99752.34;;;4.22;75.73
58662;BME280;44432;49.786;22.760;2024-01-27T10:03:04;99751.59;;;4.21;75.77
58662;BME280;44432;49.786;22.760;2024-01-27T10:05:37;99748.35;;;4.22;75.91
58662;BME280;44432;49.786;22.760;2024-01-27T10:08:08;99750.95;;;4.20;75.19
58662;BME280;44432;49.786;22.760;2024-01-27T10:10:39;99751.61;;;4.19;75.27
58662;BME280;44432;49.786;22.760;2024-01-27T10:13:11;99755.63;;;4.20;75.44
58662;BME280;44432;49.786;22.760;2024-01-27T10:15:44;99764.88;;;4.20;75.09
58662;BME280;44432;49.786;22.760;2024-01-27T10:18:15;99774.38;;;4.18;75.51
58662;BME280;44432;49.786;22.760;2024-01-27T10:20:46;99772.17;;;4.13;75.67
58662;BME280;44432;49.786;22.760;2024-01-27T10:23:17;99769.73;;;4.08;76.04
58662;BME280;44432;49.786;22.760;2024-01-27T10:25:48;99772.49;;;4.01;76.35
58662;BME280;44432;49.786;22.760;2024-01-27T10:28:19;99774.98;;;3.96;76.83
58662;BME280;44432;49.786;22.760;2024-01-27T10:30:52;99776.20;;;3.90;77.10
58662;BME280;44432;49.786;22.760;2024-01-27T10:33:23;99778.27;;;3.82;77.28
58662;BME280;44432;49.786;22.760;2024-01-27T10:36:00;99772.89;;;3.72;77.66
58662;BME280;44432;49.786;22.760;2024-01-27T10:38:35;99779.48;;;3.65;78.21
58662;BME280;44432;49.786;22.760;2024-01-27T10:41:09;99775.71;;;3.56;78.40
58662;BME280;44432;49.786;22.760;2024-01-27T10:43:41;99776.89;;;3.50;78.78
58662;BME280;44432;49.786;22.760;2024-01-27T10:46:14;99774.67;;;3.46;79.06
58662;BME280;44432;49.786;22.760;2024-01-27T10:48:50;99776.39;;;3.44;79.53
58662;BME280;44432;49.786;22.760;2024-01-27T10:51:28;99778.71;;;3.44;79.66
58662;BME280;44432;49.786;22.760;2024-01-27T10:54:02;99781.40;;;3.46;80.12
58662;BME280;44432;49.786;22.760;2024-01-27T10:56:38;99778.54;;;3.47;80.39
58662;BME280;44432;49.786;22.760;2024-01-27T10:59:10;99784.33;;;3.50;80.44
58662;BME280;44432;49.786;22.760;2024-01-27T11:01:42;99783.63;;;3.54;80.61
58662;BME280;44432;49.786;22.760;2024-01-27T11:04:14;99781.96;;;3.58;80.73
58662;BME280;44432;49.786;22.760;2024-01-27T11:06:45;99779.02;;;3.65;80.85
58662;BME280;44432;49.786;22.760;2024-01-27T11:09:18;99778.44;;;3.72;80.85
58662;BME280;44432;49.786;22.760;2024-01-27T11:11:50;99784.88;;;3.74;80.59
58662;BME280;44432;49.786;22.760;2024-01-27T11:14:21;99782.26;;;3.72;80.30
58662;BME280;44432;49.786;22.760;2024-01-27T11:16:57;99790.25;;;3.71;80.41
58662;BME280;44432;49.786;22.760;2024-01-27T11:19:28;99791.23;;;3.70;80.56
58662;BME280;44432;49.786;22.760;2024-01-27T11:22:05;99794.19;;;3.68;80.50
58662;BME280;44432;49.786;22.760;2024-01-27T11:24:36;99797.34;;;3.66;80.43
58662;BME280;44432;49.786;22.760;2024-01-27T11:27:07;99798.61;;;3.60;80.19
58662;BME280;44432;49.786;22.760;2024-01-27T11:29:48;99800.64;;;3.59;80.36
58662;BME280;44432;49.786;22.760;2024-01-27T11:32:18;99804.06;;;3.60;80.51
58662;BME280;44432;49.786;22.760;2024-01-27T11:34:51;99808.93;;;3.56;80.08
58662;BME280;44432;49.786;22.760;2024-01-27T11:37:22;99807.63;;;3.55;80.35
58662;BME280;44432;49.786;22.760;2024-01-27T11:40:05;99807.98;;;3.54;80.46
58662;BME280;44432;49.786;22.760;2024-01-27T11:42:37;99810.35;;;3.53;80.32
58662;BME280;44432;49.786;22.760;2024-01-27T11:45:09;99811.89;;;3.53;80.61
58662;BME280;44432;49.786;22.760;2024-01-27T11:47:40;99818.27;;;3.52;80.43
58662;BME280;44432;49.786;22.760;2024-01-27T11:50:11;99814.09;;;3.50;80.44
58662;BME280;44432;49.786;22.760;2024-01-27T11:52:42;99818.90;;;3.47;80.56
58662;BME280;44432;49.786;22.760;2024-01-27T11:55:13;99822.35;;;3.46;80.50
58662;BME280;44432;49.786;22.760;2024-01-27T11:57:45;99825.80;;;3.46;80.82
58662;BME280;44432;49.786;22.760;2024-01-27T12:00:17;99827.77;;;3.46;80.80
58662;BME280;44432;49.786;22.760;2024-01-27T12:02:51;99828.85;;;3.44;80.47
58662;BME280;44432;49.786;22.760;2024-01-27T12:05:22;99824.42;;;3.39;80.69
58662;BME280;44432;49.786;22.760;2024-01-27T12:07:54;99838.33;;;3.39;80.52
58662;BME280;44432;49.786;22.760;2024-01-27T12:10:25;99843.40;;;3.37;80.75
58662;BME280;44432;49.786;22.760;2024-01-27T12:12:56;99844.71;;;3.35;80.65
58662;BME280;44432;49.786;22.760;2024-01-27T12:15:27;99845.05;;;3.33;81.19
58662;BME280;44432;49.786;22.760;2024-01-27T12:17:58;99851.07;;;3.34;80.97
58662;BME280;44432;49.786;22.760;2024-01-27T12:20:29;99850.08;;;3.31;81.20
58662;BME280;44432;49.786;22.760;2024-01-27T12:23:05;99852.14;;;3.33;81.49
58662;BME280;44432;49.786;22.760;2024-01-27T12:25:36;99852.39;;;3.31;81.28
58662;BME280;44432;49.786;22.760;2024-01-27T12:28:07;99858.58;;;3.30;81.52
58662;BME280;44432;49.786;22.760;2024-01-27T12:30:40;99855.79;;;3.28;81.39
58662;BME280;44432;49.786;22.760;2024-01-27T12:33:13;99864.42;;;3.23;81.59
58662;BME280;44432;49.786;22.760;2024-01-27T12:35:44;99863.23;;;3.16;81.69
58662;BME280;44432;49.786;22.760;2024-01-27T12:38:15;99872.60;;;3.10;81.69
58662;BME280;44432;49.786;22.760;2024-01-27T12:40:47;99868.43;;;3.04;81.86
58662;BME280;44432;49.786;22.760;2024-01-27T12:43:18;99872.36;;;2.98;82.14
58662;BME280;44432;49.786;22.760;2024-01-27T12:45:49;99877.14;;;2.93;82.42
58662;BME280;44432;49.786;22.760;2024-01-27T12:48:20;99879.21;;;2.88;82.54
58662;BME280;44432;49.786;22.760;2024-01-27T12:50:51;99876.73;;;2.85;83.12
58662;BME280;44432;49.786;22.760;2024-01-27T12:53:23;99876.20;;;2.80;83.24
58662;BME280;44432;49.786;22.760;2024-01-27T12:55:54;99876.90;;;2.76;82.93
58662;BME280;44432;49.786;22.760;2024-01-27T12:58:25;99879.04;;;2.74;83.08
58662;BME280;44432;49.786;22.760;2024-01-27T13:00:57;99876.05;;;2.73;83.60
58662;BME280;44432;49.786;22.760;2024-01-27T13:03:27;99878.48;;;2.71;84.01
58662;BME280;44432;49.786;22.760;2024-01-27T13:05:59;99880.83;;;2.68;83.69
58662;BME280;44432;49.786;22.760;2024-01-27T13:08:30;99888.33;;;2.66;84.19
58662;BME280;44432;49.786;22.760;2024-01-27T13:11:01;99887.77;;;2.65;84.04
58662;BME280;44432;49.786;22.760;2024-01-27T13:13:32;99889.06;;;2.64;84.44
58662;BME280;44432;49.786;22.760;2024-01-27T13:16:03;99892.41;;;2.63;84.53
58662;BME280;44432;49.786;22.760;2024-01-27T13:18:34;99894.44;;;2.64;84.62
58662;BME280;44432;49.786;22.760;2024-01-27T13:21:05;99899.30;;;2.64;84.44